createdAt,value
2022-10-20T00:01:23.875Z,9.20
2022-10-20T00:03:52.119Z,9.15
2022-10-20T00:06:22.037Z,10.00
2022-10-20T00:08:49.678Z,10.10
2022-10-20T00:11:19.071Z,9.95
2022-10-20T00:13:48.046Z,9.50
2022-10-20T00:16:15.978Z,9.45
2022-10-20T00:18:43.342Z,9.82
2022-10-20T00:21:14.289Z,9.80
2022-10-20T00:23:41.619Z,9.82
2022-10-20T00:26:14.339Z,8.80
2022-10-20T00:28:42.335Z,9.65
2022-10-20T00:31:09.668Z,9.18
2022-10-20T00:33:36.957Z,8.80
2022-10-20T00:36:06.591Z,8.77
2022-10-20T00:38:34.886Z,9.38
2022-10-20T00:41:06.139Z,9.05
2022-10-20T00:43:49.994Z,9.32
2022-10-20T00:46:39.794Z,8.70
2022-10-20T00:49:19.836Z,9.07
2022-10-20T00:51:47.288Z,8.88
2022-10-20T00:54:18.080Z,8.75
2022-10-20T00:56:47.205Z,9.15
2022-10-20T00:59:17.634Z,8.75
2022-10-20T01:01:46.297Z,9.82
2022-10-20T01:04:13.661Z,9.43
2022-10-20T01:06:40.971Z,8.70
2022-10-20T01:09:08.595Z,9.25
2022-10-20T01:11:44.948Z,9.15
2022-10-20T01:14:14.987Z,8.85
2022-10-20T01:17:03.362Z,8.50
2022-10-20T01:19:52.018Z,8.95
2022-10-20T01:22:33.945Z,8.82
2022-10-20T01:25:08.007Z,9.40
2022-10-20T01:27:38.672Z,9.25
2022-10-20T01:30:24.338Z,8.60
2022-10-20T01:33:03.619Z,8.65
2022-10-20T01:35:39.778Z,8.80
2022-10-20T01:38:14.178Z,10.02
2022-10-20T01:40:49.649Z,9.20
2022-10-20T01:43:19.670Z,9.00
2022-10-20T01:45:48.646Z,9.30
2022-10-20T01:48:18.808Z,9.25
2022-10-20T01:53:13.411Z,8.90
2022-10-20T01:55:40.819Z,9.15
2022-10-20T01:58:43.433Z,9.23
2022-10-20T02:01:49.887Z,9.02
2022-10-20T02:04:22.458Z,8.60
2022-10-20T02:07:04.255Z,8.95
2022-10-20T02:09:48.698Z,8.90
2022-10-20T02:12:23.587Z,8.98
2022-10-20T02:14:51.450Z,8.50
2022-10-20T02:17:20.082Z,8.32
2022-10-20T02:19:49.391Z,8.48
2022-10-20T02:22:16.949Z,7.50
2022-10-20T02:24:44.754Z,6.93
2022-10-20T02:27:15.639Z,6.97
2022-10-20T02:29:47.947Z,6.68
2022-10-20T02:32:15.564Z,6.60
2022-10-20T02:34:43.159Z,6.85
2022-10-20T02:37:10.894Z,6.60
2022-10-20T02:39:38.112Z,6.03
2022-10-20T02:42:06.310Z,5.90
2022-10-20T02:44:33.960Z,5.70
2022-10-20T02:47:01.178Z,5.65
2022-10-20T02:49:28.376Z,6.22
2022-10-20T02:51:55.745Z,5.07
2022-10-20T02:54:22.930Z,5.80
2022-10-20T02:56:50.301Z,5.18
2022-10-20T02:59:17.554Z,5.90
2022-10-20T03:01:45.105Z,4.88
2022-10-20T03:04:13.118Z,5.38
2022-10-20T03:06:41.183Z,5.50
2022-10-20T03:09:08.501Z,5.20
2022-10-20T03:11:35.946Z,5.00
2022-10-20T03:14:03.351Z,5.15
2022-10-20T03:16:30.571Z,5.45
2022-10-20T03:19:01.551Z,5.70
2022-10-20T03:21:31.876Z,5.35
2022-10-20T03:23:59.040Z,5.43
2022-10-20T03:26:26.367Z,5.03
2022-10-20T03:28:53.619Z,5.10
2022-10-20T03:31:20.828Z,5.03
2022-10-20T03:33:48.064Z,5.00
2022-10-20T03:36:15.258Z,4.72
2022-10-20T03:38:43.239Z,5.18
2022-10-20T03:41:11.216Z,4.82
2022-10-20T03:43:39.404Z,4.65
2022-10-20T03:46:09.224Z,5.30
2022-10-20T03:48:37.011Z,4.68
2022-10-20T03:51:05.152Z,5.20
2022-10-20T03:53:32.346Z,5.18
2022-10-20T03:55:59.524Z,4.95
2022-10-20T03:58:26.880Z,5.03
2022-10-20T04:00:54.502Z,5.40
2022-10-20T04:03:21.882Z,5.22
2022-10-20T04:05:49.214Z,4.97
2022-10-20T04:08:16.609Z,5.82
2022-10-20T04:10:43.846Z,6.50
2022-10-20T04:13:11.061Z,6.15
2022-10-20T04:15:38.280Z,6.55
2022-10-20T04:18:05.486Z,7.07
2022-10-20T04:20:32.723Z,6.30
2022-10-20T04:23:00.031Z,6.00
2022-10-20T04:25:27.249Z,6.75
2022-10-20T04:27:54.534Z,7.18
2022-10-20T04:30:21.711Z,7.88
2022-10-20T04:32:48.988Z,7.70
2022-10-20T04:35:16.276Z,7.45
2022-10-20T04:37:43.447Z,7.60
2022-10-20T04:40:11.144Z,7.85
2022-10-20T04:42:38.349Z,6.75
2022-10-20T04:45:06.121Z,6.95
2022-10-20T04:47:34.022Z,7.18
2022-10-20T04:50:01.501Z,7.20
2022-10-20T04:52:29.613Z,6.65
2022-10-20T04:54:59.366Z,7.07
2022-10-20T04:57:27.241Z,6.70
2022-10-20T04:59:54.501Z,6.82
2022-10-20T05:02:21.802Z,6.78
2022-10-20T05:04:49.006Z,9.07
2022-10-20T05:07:16.742Z,9.50
2022-10-20T05:09:44.071Z,8.40
2022-10-20T05:12:11.475Z,8.20
2022-10-20T05:14:38.742Z,7.72
2022-10-20T05:17:09.208Z,6.45
2022-10-20T05:19:37.383Z,10.70
2022-10-20T05:22:04.592Z,11.32
2022-10-20T05:24:31.785Z,9.60
2022-10-20T05:26:59.023Z,7.38
2022-10-20T05:29:26.315Z,6.32
2022-10-20T05:31:53.524Z,6.35
2022-10-20T05:34:20.785Z,6.25
2022-10-20T05:36:48.025Z,7.53
2022-10-20T05:39:15.286Z,10.00
2022-10-20T05:41:42.509Z,13.98
2022-10-20T05:44:12.628Z,8.38
2022-10-20T05:46:42.722Z,7.38
2022-10-20T05:49:14.191Z,6.70
2022-10-20T05:51:41.755Z,10.30
2022-10-20T05:54:11.818Z,13.60
2022-10-20T05:56:39.307Z,21.17
2022-10-20T05:59:06.526Z,8.25
2022-10-20T06:01:48.322Z,5.70
2022-10-20T06:04:18.036Z,5.07
2022-10-20T06:06:45.405Z,5.07
2022-10-20T06:09:12.781Z,4.32
2022-10-20T06:11:40.427Z,4.20
2022-10-20T06:14:08.589Z,4.75
2022-10-20T06:16:36.243Z,4.85
2022-10-20T06:19:03.925Z,5.47
2022-10-20T06:21:33.398Z,5.63
2022-10-20T06:24:01.637Z,30.80
2022-10-20T06:26:32.726Z,12.15
2022-10-20T06:29:04.368Z,5.95
2022-10-20T06:31:33.852Z,4.50
2022-10-20T06:34:01.647Z,5.75
2022-10-20T06:36:28.999Z,5.35
2022-10-20T06:38:59.280Z,5.95
2022-10-20T06:43:58.516Z,6.72
2022-10-20T06:46:32.881Z,5.57
2022-10-20T06:49:01.382Z,6.03
2022-10-20T06:51:29.038Z,5.85
2022-10-20T06:53:56.315Z,6.25
2022-10-20T06:56:25.752Z,5.97
2022-10-20T06:58:55.568Z,5.85
2022-10-20T07:01:34.019Z,6.65
2022-10-20T07:04:05.118Z,5.60
2022-10-20T07:06:38.202Z,6.10
2022-10-20T07:09:08.465Z,6.05
2022-10-20T07:11:36.045Z,5.72
2022-10-20T07:14:04.177Z,5.40
2022-10-20T07:16:33.593Z,5.28
2022-10-20T07:19:02.080Z,5.33
2022-10-20T07:21:34.630Z,5.20
2022-10-20T07:24:05.862Z,5.00
2022-10-20T07:26:36.135Z,5.70
2022-10-20T07:29:04.288Z,6.32
2022-10-20T07:31:36.712Z,20.73
2022-10-20T07:34:13.419Z,17.05
2022-10-20T07:36:49.257Z,21.48
2022-10-20T07:39:16.825Z,16.65
2022-10-20T07:41:45.617Z,8.13
2022-10-20T07:44:13.247Z,5.55
2022-10-20T07:46:40.457Z,6.13
2022-10-20T07:51:56.944Z,5.43
2022-10-20T07:54:24.251Z,6.15
2022-10-20T07:56:51.646Z,5.80
2022-10-20T07:59:19.175Z,5.50
2022-10-20T08:01:46.731Z,9.45
2022-10-20T08:04:14.119Z,5.68
2022-10-20T08:06:41.413Z,8.40
2022-10-20T08:09:08.679Z,6.18
2022-10-20T08:11:36.040Z,5.13
2022-10-20T08:14:03.994Z,5.57
2022-10-20T08:16:36.957Z,5.85
2022-10-20T08:19:17.958Z,7.70
2022-10-20T08:21:45.175Z,9.20
2022-10-20T08:24:12.410Z,6.53
2022-10-20T08:26:39.631Z,5.20
2022-10-20T08:29:06.845Z,5.47
2022-10-20T08:31:34.005Z,5.32
2022-10-20T08:34:01.220Z,4.80
2022-10-20T08:36:28.504Z,6.97
2022-10-20T08:38:56.543Z,5.43
2022-10-20T08:41:27.044Z,6.25
2022-10-20T08:43:57.621Z,6.65
2022-10-20T08:46:38.454Z,7.20
2022-10-20T08:49:10.839Z,6.40
2022-10-20T08:51:38.576Z,5.97
2022-10-20T08:54:12.394Z,6.35
2022-10-20T08:56:39.824Z,5.13
2022-10-20T08:59:29.225Z,5.00
2022-10-20T09:01:57.731Z,4.53
2022-10-20T09:04:38.106Z,5.05
2022-10-20T09:07:13.676Z,4.68
2022-10-20T09:09:41.362Z,4.03
2022-10-20T09:12:12.479Z,3.97
2022-10-20T09:14:39.651Z,4.45
2022-10-20T09:17:14.349Z,3.70
2022-10-20T09:19:46.952Z,4.00
2022-10-20T09:22:14.860Z,3.55
2022-10-20T09:24:42.934Z,3.65
2022-10-20T09:27:29.981Z,3.33
2022-10-20T09:29:57.236Z,4.05
2022-10-20T09:32:47.567Z,3.17
2022-10-20T09:35:15.234Z,3.40
2022-10-20T09:37:44.517Z,2.90
2022-10-20T09:40:16.050Z,3.17
2022-10-20T09:42:52.765Z,3.45
2022-10-20T09:45:31.729Z,2.92
2022-10-20T09:48:03.649Z,3.55
2022-10-20T09:50:39.824Z,3.22
2022-10-20T09:53:18.150Z,3.53
2022-10-20T09:55:47.550Z,3.20
2022-10-20T09:58:21.300Z,3.23
2022-10-20T10:00:57.313Z,3.05
2022-10-20T10:03:25.096Z,3.58
2022-10-20T10:05:59.910Z,3.20
2022-10-20T10:08:44.190Z,2.97
2022-10-20T10:11:17.240Z,2.92
2022-10-20T10:13:51.857Z,3.13
2022-10-20T10:16:21.362Z,3.72
2022-10-20T10:19:02.492Z,2.83
2022-10-20T10:21:30.690Z,2.88
2022-10-20T10:24:02.005Z,3.13
2022-10-20T10:26:42.861Z,3.85
2022-10-20T10:29:27.770Z,4.43
2022-10-20T10:32:00.870Z,2.80
2022-10-20T10:34:56.065Z,3.15
2022-10-20T10:37:23.270Z,2.65
2022-10-20T10:39:50.497Z,2.63
2022-10-20T10:42:31.464Z,3.65
2022-10-20T10:45:31.088Z,3.20
2022-10-20T10:48:16.317Z,4.18
2022-10-20T10:51:00.665Z,3.42
2022-10-20T10:54:18.712Z,3.70
2022-10-20T10:56:57.347Z,3.70
2022-10-20T10:59:35.133Z,4.72
2022-10-20T11:02:33.634Z,3.60
2022-10-20T11:07:54.542Z,5.35
2022-10-20T11:10:33.286Z,5.47
2022-10-20T11:13:11.629Z,5.82
2022-10-20T11:16:05.758Z,5.38
2022-10-20T11:18:54.851Z,4.03
2022-10-20T11:21:40.865Z,4.20
2022-10-20T11:24:29.664Z,7.50
2022-10-20T11:27:02.177Z,5.45
2022-10-20T11:29:49.872Z,4.72
2022-10-20T11:32:20.473Z,5.53
2022-10-20T11:35:07.777Z,5.28
2022-10-20T11:37:44.141Z,4.03
2022-10-20T11:40:11.465Z,2.90
2022-10-20T11:43:16.456Z,2.97
2022-10-20T11:46:25.306Z,2.90
2022-10-20T11:48:54.642Z,8.15
2022-10-20T11:51:30.917Z,10.77
2022-10-20T11:54:24.706Z,8.90
2022-10-20T11:57:25.501Z,11.45
2022-10-20T12:03:30.124Z,6.53
2022-10-20T12:06:09.202Z,4.68
2022-10-20T12:08:45.577Z,3.92
2022-10-20T12:11:15.936Z,2.75
2022-10-20T12:13:58.640Z,1.65
2022-10-20T12:17:07.944Z,2.40
2022-10-20T12:19:35.715Z,2.70
2022-10-20T12:22:07.094Z,2.58
2022-10-20T12:24:38.274Z,2.00
2022-10-20T12:27:08.429Z,2.20
2022-10-20T12:32:21.358Z,2.70
2022-10-20T12:34:50.620Z,2.30
2022-10-20T12:37:28.036Z,2.50
2022-10-20T12:40:19.614Z,2.38
2022-10-20T12:42:49.076Z,2.50
2022-10-20T12:45:19.155Z,2.63
2022-10-20T12:50:37.010Z,3.72
2022-10-20T12:53:13.183Z,3.33
2022-10-20T12:55:42.133Z,2.17
2022-10-20T12:58:19.116Z,1.73
2022-10-20T13:00:46.432Z,1.70
2022-10-20T13:03:44.051Z,2.38
2022-10-20T13:06:23.639Z,2.30
2022-10-20T13:09:03.446Z,1.95
2022-10-20T13:11:42.652Z,1.98
2022-10-20T13:14:12.695Z,2.10
2022-10-20T13:17:06.200Z,1.80
2022-10-20T13:20:04.256Z,2.28
2022-10-20T13:22:43.221Z,2.58
2022-10-20T13:25:18.599Z,2.28
2022-10-20T13:27:48.518Z,2.20
2022-10-20T13:30:20.833Z,2.88
2022-10-20T13:33:28.765Z,2.35
2022-10-20T13:36:10.378Z,2.40
2022-10-20T13:39:03.905Z,2.30
2022-10-20T13:41:45.838Z,2.67
2022-10-20T13:44:31.842Z,3.08
2022-10-20T13:47:08.261Z,1.70
2022-10-20T13:50:05.794Z,1.85
2022-10-20T13:52:41.116Z,2.50
2022-10-20T13:55:16.095Z,3.17
2022-10-20T13:57:55.122Z,2.05
2022-10-20T14:00:26.330Z,2.25
2022-10-20T14:02:56.480Z,2.20
2022-10-20T14:05:24.462Z,2.13
2022-10-20T14:07:52.184Z,2.45
2022-10-20T14:10:53.114Z,2.47
2022-10-20T14:13:23.577Z,2.50
2022-10-20T14:15:57.037Z,2.13
2022-10-20T14:18:35.365Z,2.47
2022-10-20T14:21:05.590Z,2.95
2022-10-20T14:23:38.193Z,2.00
2022-10-20T14:26:11.219Z,2.58
2022-10-20T14:28:39.261Z,2.92
2022-10-20T14:31:06.951Z,2.40
2022-10-20T14:33:36.934Z,2.25
2022-10-20T14:36:05.310Z,2.20
2022-10-20T14:38:37.950Z,2.13
2022-10-20T14:41:07.253Z,1.98
2022-10-20T14:43:43.340Z,2.00
2022-10-20T14:46:12.607Z,2.58
2022-10-20T14:48:48.242Z,2.10
2022-10-20T14:51:44.986Z,2.67
2022-10-20T14:54:20.491Z,2.22
2022-10-20T14:56:56.036Z,2.60
2022-10-20T14:59:26.976Z,2.13
2022-10-20T15:02:08.343Z,2.33
2022-10-20T15:04:37.459Z,2.45
2022-10-20T15:07:17.335Z,2.00
2022-10-20T15:09:50.798Z,2.58
2022-10-20T15:12:20.267Z,2.28
2022-10-20T15:14:50.263Z,2.38
2022-10-20T15:17:37.679Z,2.33
2022-10-20T15:20:30.465Z,2.10
2022-10-20T15:23:05.978Z,2.40
2022-10-20T15:25:45.017Z,2.70
2022-10-20T15:28:38.212Z,2.30
2022-10-20T15:31:08.587Z,2.35
2022-10-20T15:33:35.799Z,2.20
2022-10-20T15:36:03.258Z,2.10
2022-10-20T15:38:31.141Z,3.20
2022-10-20T15:43:33.079Z,2.50
2022-10-20T15:46:00.434Z,2.60
2022-10-20T15:48:28.505Z,2.40
2022-10-20T15:50:57.013Z,2.55
2022-10-20T15:53:24.463Z,3.15
2022-10-20T15:55:51.932Z,3.25
2022-10-20T15:58:19.272Z,2.45
2022-10-20T16:00:46.569Z,2.55
2022-10-20T16:03:18.220Z,2.60
2022-10-20T16:05:46.804Z,2.58
2022-10-20T16:10:43.571Z,2.50
2022-10-20T16:13:12.007Z,2.95
2022-10-20T16:15:39.331Z,2.88
2022-10-20T16:18:09.594Z,2.63
2022-10-20T16:20:40.122Z,3.05
2022-10-20T16:23:07.574Z,2.92
2022-10-20T16:25:35.091Z,2.88
2022-10-20T16:28:02.619Z,3.35
2022-10-20T16:30:29.797Z,3.58
2022-10-20T16:32:57.127Z,3.80
2022-10-20T16:35:24.429Z,3.17
2022-10-20T16:37:51.707Z,3.88
2022-10-20T16:40:19.751Z,3.53
2022-10-20T16:42:47.053Z,3.22
2022-10-20T16:45:14.437Z,3.17
2022-10-20T16:47:41.745Z,3.75
2022-10-20T16:50:09.159Z,3.63
2022-10-20T16:52:36.321Z,3.40
2022-10-20T16:55:03.898Z,3.58
2022-10-20T16:57:38.118Z,3.28
2022-10-20T17:00:08.116Z,3.50
2022-10-20T17:02:36.335Z,3.45
2022-10-20T17:05:08.217Z,3.30
2022-10-20T17:07:37.138Z,3.13
2022-10-20T17:10:04.961Z,3.13
2022-10-20T17:12:32.149Z,3.30
2022-10-20T17:14:59.369Z,3.45
2022-10-20T17:17:27.327Z,3.53
2022-10-20T17:19:54.696Z,3.63
2022-10-20T17:22:21.931Z,3.50
2022-10-20T17:24:49.136Z,3.08
2022-10-20T17:27:19.994Z,3.30
2022-10-20T17:29:51.695Z,4.45
2022-10-20T17:32:18.984Z,3.90
2022-10-20T17:34:46.158Z,3.90
2022-10-20T17:37:13.474Z,4.35
2022-10-20T17:39:40.923Z,7.05
2022-10-20T17:42:08.132Z,5.95
2022-10-20T17:44:35.421Z,10.35
2022-10-20T17:47:04.388Z,10.45
2022-10-20T17:49:31.902Z,12.98
2022-10-20T17:51:59.227Z,9.60
2022-10-20T17:54:26.523Z,7.18
2022-10-20T17:56:53.765Z,10.13
2022-10-20T17:59:20.997Z,6.53
2022-10-20T18:01:48.316Z,6.40
2022-10-20T18:04:16.884Z,7.03
2022-10-20T18:06:44.892Z,6.80
2022-10-20T18:09:15.056Z,7.35
2022-10-20T18:11:47.758Z,6.40
2022-10-20T18:14:16.992Z,4.40
2022-10-20T18:16:44.222Z,3.65
2022-10-20T18:19:18.791Z,3.83
2022-10-20T18:21:46.520Z,4.00
2022-10-20T18:24:15.406Z,4.10
2022-10-20T18:26:43.533Z,4.43
2022-10-20T18:29:11.351Z,4.32
2022-10-20T18:31:40.742Z,3.55
2022-10-20T18:34:09.833Z,4.00
2022-10-20T18:36:40.680Z,4.03
2022-10-20T18:39:11.112Z,3.97
2022-10-20T18:41:40.103Z,6.88
2022-10-20T18:44:11.507Z,5.90
2022-10-20T18:46:39.570Z,7.97
2022-10-20T18:49:07.995Z,8.73
2022-10-20T18:51:36.163Z,8.07
2022-10-20T18:54:04.954Z,6.13
2022-10-20T18:56:32.352Z,5.95
2022-10-20T18:59:05.723Z,5.25
2022-10-20T19:01:35.287Z,4.90
2022-10-20T19:04:03.838Z,5.03
2022-10-20T19:06:42.218Z,5.05
2022-10-20T19:09:15.142Z,5.28
2022-10-20T19:11:42.717Z,4.85
2022-10-20T19:14:10.312Z,5.70
2022-10-20T19:16:38.491Z,5.55
2022-10-20T19:19:08.952Z,4.85
2022-10-20T19:21:37.005Z,5.00
2022-10-20T19:24:10.041Z,4.90
2022-10-20T19:26:56.858Z,5.25
2022-10-20T19:29:30.210Z,5.45
2022-10-20T19:31:59.550Z,4.82
2022-10-20T19:34:38.592Z,5.53
2022-10-20T19:37:07.072Z,4.95
2022-10-20T19:39:37.772Z,5.22
2022-10-20T19:42:06.991Z,9.55
2022-10-20T19:44:34.420Z,10.10
2022-10-20T19:47:01.776Z,6.57
2022-10-20T19:49:29.105Z,5.43
2022-10-20T19:51:56.719Z,4.72
2022-10-20T19:54:24.009Z,5.50
2022-10-20T19:56:51.219Z,4.85
2022-10-20T19:59:18.491Z,5.60
2022-10-20T20:01:45.936Z,5.05
2022-10-20T20:04:13.235Z,4.65
2022-10-20T20:06:40.952Z,4.10
2022-10-20T20:09:09.962Z,3.85
2022-10-20T20:11:38.298Z,9.38
2022-10-20T20:14:07.225Z,9.15
2022-10-20T20:16:35.083Z,15.52
2022-10-20T20:19:02.396Z,8.95
2022-10-20T20:21:29.830Z,9.20
2022-10-20T20:24:00.851Z,7.57
2022-10-20T20:26:30.237Z,7.68
2022-10-20T20:29:00.620Z,9.38
2022-10-20T20:31:28.158Z,6.30
2022-10-20T20:33:57.217Z,6.30
2022-10-20T20:36:28.116Z,5.50
2022-10-20T20:38:57.647Z,4.63
2022-10-20T20:41:35.073Z,7.10
2022-10-20T20:44:07.674Z,5.72
2022-10-20T20:46:36.395Z,5.72
2022-10-20T20:49:04.304Z,7.68
2022-10-20T20:51:34.017Z,5.95
2022-10-20T20:54:02.805Z,4.72
2022-10-20T20:56:30.487Z,5.28
2022-10-20T20:58:57.742Z,4.40
2022-10-20T21:01:31.726Z,4.00
2022-10-20T21:04:01.769Z,3.55
2022-10-20T21:06:34.021Z,3.78
2022-10-20T21:09:08.187Z,3.15
2022-10-20T21:11:36.017Z,3.17
2022-10-20T21:14:03.668Z,2.80
2022-10-20T21:16:33.415Z,2.78
2022-10-20T21:19:03.459Z,2.80
2022-10-20T21:21:33.370Z,3.00
2022-10-20T21:24:01.699Z,3.10
2022-10-20T21:26:30.129Z,2.88
2022-10-20T21:28:57.734Z,2.55
2022-10-20T21:31:26.680Z,3.40
2022-10-20T21:33:56.569Z,2.90
2022-10-20T21:36:24.714Z,3.50
2022-10-20T21:38:52.479Z,3.00
2022-10-20T21:41:23.715Z,3.35
2022-10-20T21:43:55.890Z,3.00
2022-10-20T21:46:25.993Z,2.80
2022-10-20T21:48:54.757Z,3.30
2022-10-20T21:51:24.663Z,2.92
2022-10-20T21:53:59.309Z,3.08
2022-10-20T21:56:26.703Z,2.90
2022-10-20T21:58:54.218Z,3.17
2022-10-20T22:01:24.033Z,3.33
2022-10-20T22:03:53.071Z,3.08
2022-10-20T22:06:22.948Z,3.75
2022-10-20T22:08:52.228Z,3.70
2022-10-20T22:11:31.682Z,3.83
2022-10-20T22:13:59.482Z,3.30
2022-10-20T22:16:29.433Z,3.10
2022-10-20T22:19:06.086Z,3.22
2022-10-20T22:21:36.659Z,3.28
2022-10-20T22:24:05.097Z,3.40
2022-10-20T22:26:32.870Z,3.13
2022-10-20T22:29:00.568Z,3.30
2022-10-20T22:31:28.249Z,3.60
2022-10-20T22:33:57.033Z,3.13
2022-10-20T22:36:24.916Z,3.35
2022-10-20T22:38:52.420Z,3.25
2022-10-20T22:41:19.780Z,3.25
2022-10-20T22:43:47.384Z,3.25
2022-10-20T22:46:15.906Z,3.30
2022-10-20T22:48:43.736Z,3.58
2022-10-20T22:51:10.975Z,3.70
2022-10-20T22:53:38.620Z,3.20
2022-10-20T22:56:10.014Z,2.90
2022-10-20T22:58:37.696Z,2.75
2022-10-20T23:01:10.351Z,3.22
2022-10-20T23:03:37.955Z,2.95
2022-10-20T23:06:17.839Z,2.53
2022-10-20T23:08:47.322Z,2.97
2022-10-20T23:11:15.108Z,3.00
2022-10-20T23:13:42.610Z,2.88
2022-10-20T23:16:10.240Z,3.05
2022-10-20T23:18:37.723Z,2.83
2022-10-20T23:21:05.684Z,2.55
2022-10-20T23:23:35.939Z,3.03
2022-10-20T23:28:32.786Z,3.15
2022-10-20T23:31:15.056Z,2.67
2022-10-20T23:33:43.657Z,3.05
2022-10-20T23:36:12.406Z,3.08
2022-10-20T23:38:41.633Z,2.55
2022-10-20T23:41:09.770Z,3.13
2022-10-20T23:43:37.261Z,2.33
2022-10-20T23:46:04.790Z,3.13
2022-10-20T23:48:32.472Z,2.80
2022-10-20T23:50:59.757Z,3.20
2022-10-20T23:53:27.060Z,3.08
2022-10-20T23:55:54.371Z,2.67
2022-10-20T23:58:22.697Z,2.33
